Time;durP1;ratioP1;P1;durP2;ratioP2;P2;SDS_P1;SDS_P2;PMS_P1;PMS_P2;Temp;Humidity;BMP_temperature;BMP_pressure;BME280_temperature;BME280_humidity;BME280_pressure;Samples;Min_cycle;Max_cycle;Signal;HPM_P1;HPM_P2
2022/10/16 00:00:03;;;;;;;5.65;1.67;;;12.80;99.90;;;;;;5108239;27;20037;-81
2022/10/16 00:02:29;;;;;;;7.07;2.17;;;12.00;99.90;;;;;;5126678;27;20053;-81
2022/10/16 00:04:54;;;;;;;12.45;1.63;;;12.00;99.90;;;;;;5126643;27;20043;-80
2022/10/16 00:07:20;;;;;;;7.78;1.45;;;12.00;99.90;;;;;;5139875;27;20039;-79
2022/10/16 00:09:46;;;;;;;5.22;1.10;;;12.00;99.90;;;;;;5106082;27;20046;-79
2022/10/16 00:12:11;;;;;;;8.20;1.25;;;12.80;99.90;;;;;;5108633;27;20516;-80
2022/10/16 00:14:40;;;;;;;6.35;1.17;;;13.60;99.90;;;;;;5127469;27;20134;-80
2022/10/16 00:17:06;;;;;;;7.32;1.67;;;12.00;99.90;;;;;;5151988;27;20107;-81
2022/10/16 00:19:31;;;;;;;5.30;1.42;;;13.90;99.90;;;;;;5105215;27;20047;-79
2022/10/16 00:21:57;;;;;;;5.40;1.27;;;13.60;99.90;;;;;;5120057;27;20039;-79
2022/10/16 00:24:23;;;;;;;11.68;2.08;;;13.80;99.90;;;;;;5106043;27;20478;-80
2022/10/16 00:26:50;;;;;;;5.35;1.23;;;12.10;99.90;;;;;;5107392;27;20043;-79
2022/10/16 00:29:16;;;;;;;7.32;1.00;;;12.80;99.90;;;;;;5114581;27;20074;-80
2022/10/16 00:31:42;;;;;;;6.03;1.20;;;12.10;99.90;;;;;;5108757;27;20119;-79
2022/10/16 00:34:09;;;;;;;8.05;1.25;;;12.90;99.90;;;;;;5107113;27;20035;-78
2022/10/16 00:36:34;;;;;;;6.93;1.60;;;10.60;99.90;;;;;;5104835;27;20058;-79
2022/10/16 00:39:01;;;;;;;4.75;1.05;;;13.50;99.90;;;;;;5145259;27;20039;-80
2022/10/16 00:41:27;;;;;;;6.10;1.40;;;13.60;99.90;;;;;;5127453;27;20096;-80
2022/10/16 00:43:56;;;;;;;9.50;1.70;;;13.70;99.90;;;;;;5116090;27;20053;-79
2022/10/16 00:46:23;;;;;;;4.93;0.98;;;13.70;99.90;;;;;;5103266;27;20141;-80
2022/10/16 00:49:01;;;;;;;5.40;1.05;;;12.00;99.90;;;;;;5111998;27;20065;-80
2022/10/16 00:51:36;;;;;;;7.18;1.20;;;12.10;99.90;;;;;;5119468;27;20047;-80
2022/10/16 00:54:11;;;;;;;9.23;1.10;;;12.20;99.90;;;;;;5113755;27;20034;-82
2022/10/16 00:56:37;;;;;;;6.07;1.35;;;12.10;99.90;;;;;;5122224;27;20047;-84
2022/10/16 00:59:13;;;;;;;3.00;0.73;;;12.20;99.90;;;;;;5111742;27;20383;-82
2022/10/16 01:01:39;;;;;;;6.78;1.25;;;13.00;99.90;;;;;;5109331;27;20043;-85
2022/10/16 01:04:05;;;;;;;7.45;1.52;;;12.90;99.90;;;;;;5114070;27;20034;-84
2022/10/16 01:06:39;;;;;;;4.80;1.30;;;13.30;99.90;;;;;;5109424;27;20046;-87
2022/10/16 01:09:14;;;;;;;9.82;1.30;;;12.20;99.90;;;;;;5129419;27;20133;-87
2022/10/16 01:12:19;;;;;;;5.25;1.45;;;13.70;99.90;;;;;;5129636;27;20665;-87
2022/10/16 01:14:58;;;;;;;2.88;0.90;;;12.20;99.90;;;;;;5074156;27;20066;-84
2022/10/16 01:17:49;;;;;;;4.63;1.08;;;13.40;99.90;;;;;;5096492;27;20046;-84
2022/10/16 01:20:27;;;;;;;5.38;0.60;;;12.20;99.90;;;;;;5113759;27;20042;-87
2022/10/16 01:23:18;;;;;;;2.47;0.93;;;12.20;99.90;;;;;;5129574;27;20037;-81
2022/10/16 01:26:39;;;;;;;6.43;1.27;;;12.20;99.90;;;;;;5103931;27;20080;-84
2022/10/16 01:29:18;;;;;;;6.40;0.98;;;12.20;99.90;;;;;;5068778;27;20047;-83
2022/10/16 01:31:51;;;;;;;4.10;1.33;;;12.10;99.90;;;;;;5129025;27;20125;-84
2022/10/16 01:34:31;;;;;;;9.70;1.50;;;13.30;99.90;;;;;;5104424;27;20049;-78
2022/10/16 01:37:09;;;;;;;3.42;0.90;;;12.20;99.90;;;;;;5100758;27;20028;-79
2022/10/16 01:39:39;;;;;;;7.47;1.65;;;13.20;99.90;;;;;;5127811;27;20043;-80
2022/10/16 01:42:12;;;;;;;11.73;1.80;;;13.80;99.90;;;;;;5099144;27;20046;-79
2022/10/16 01:44:39;;;;;;;3.80;0.85;;;12.10;99.90;;;;;;5126542;27;20035;-80
2022/10/16 01:47:07;;;;;;;5.35;1.40;;;12.20;99.90;;;;;;5112127;27;20125;-84
2022/10/16 01:49:36;;;;;;;4.03;0.80;;;13.90;99.90;;;;;;5108301;27;20053;-79
2022/10/16 01:52:09;;;;;;;4.28;1.27;;;12.60;99.90;;;;;;5127737;27;20046;-77
2022/10/16 01:54:39;;;;;;;3.60;1.15;;;12.20;99.90;;;;;;5106559;27;20092;-80
2022/10/16 01:57:07;;;;;;;4.43;1.13;;;13.80;99.90;;;;;;5113676;27;20038;-77
2022/10/16 01:59:43;;;;;;;5.93;0.95;;;12.20;99.90;;;;;;5129982;27;20038;-77
2022/10/16 02:02:11;;;;;;;7.65;1.33;;;13.50;99.90;;;;;;5126909;27;20481;-79
2022/10/16 02:04:52;;;;;;;4.07;1.00;;;12.10;99.90;;;;;;5123252;27;20050;-79
2022/10/16 02:07:18;;;;;;;5.38;1.15;;;12.30;99.90;;;;;;5112021;27;20039;-80
2022/10/16 02:09:44;;;;;;;2.50;1.20;;;11.90;99.90;;;;;;5122628;27;20049;-78
2022/10/16 02:12:18;;;;;;;3.10;1.10;;;13.90;99.90;;;;;;5105016;27;20145;-78
2022/10/16 02:14:44;;;;;;;5.30;1.20;;;12.30;99.90;;;;;;5117050;27;20043;-78
2022/10/16 02:17:15;;;;;;;3.90;1.48;;;13.40;99.90;;;;;;5105684;27;20084;-79
2022/10/16 02:19:43;;;;;;;5.40;1.33;;;12.30;99.90;;;;;;5125521;27;20042;-80
2022/10/16 02:22:15;;;;;;;4.15;0.80;;;12.70;99.90;;;;;;5104072;27;20478;-78
2022/10/16 02:24:50;;;;;;;5.05;1.20;;;12.30;99.90;;;;;;5115142;27;20042;-79
2022/10/16 02:27:35;;;;;;;4.93;1.25;;;12.30;99.90;;;;;;5104754;27;20491;-79
2022/10/16 02:30:08;;;;;;;9.02;1.67;;;12.30;99.90;;;;;;5122763;27;20050;-79
2022/10/16 02:32:37;;;;;;;6.75;1.48;;;12.30;99.90;;;;;;5105579;27;20070;-78
2022/10/16 02:35:04;;;;;;;4.63;0.90;;;13.90;99.90;;;;;;5110698;27;20077;-79
2022/10/16 02:37:31;;;;;;;4.90;1.30;;;12.30;99.90;;;;;;5099024;27;20039;-79
2022/10/16 02:39:58;;;;;;;4.20;1.05;;;13.50;99.90;;;;;;5110113;27;20050;-77
2022/10/16 02:42:29;;;;;;;4.05;0.98;;;13.30;99.90;;;;;;5110184;27;20095;-77
2022/10/16 02:44:55;;;;;;;4.38;0.70;;;12.40;99.90;;;;;;5148370;27;20545;-82
2022/10/16 02:47:20;;;;;;;4.95;1.08;;;13.60;99.90;;;;;;5123222;27;20169;-84
2022/10/16 02:49:46;;;;;;;3.58;1.27;;;12.40;99.90;;;;;;5121402;27;20736;-79
2022/10/16 02:52:12;;;;;;;5.63;0.93;;;14.10;99.90;;;;;;5129732;27;20055;-82
2022/10/16 02:54:37;;;;;;;4.43;1.33;;;11.50;99.90;;;;;;5122667;27;20043;-86
2022/10/16 02:57:03;;;;;;;4.22;0.90;;;13.40;99.90;;;;;;5102419;27;20074;-83
2022/10/16 02:59:28;;;;;;;5.55;1.08;;;13.80;99.90;;;;;;5124607;27;20051;-78
2022/10/16 03:01:54;;;;;;;3.85;0.80;;;12.30;99.90;;;;;;5103134;27;20039;-77
2022/10/16 03:04:20;;;;;;;3.53;1.00;;;13.40;99.90;;;;;;5125641;27;20038;-77
2022/10/16 03:06:45;;;;;;;3.47;1.00;;;12.60;99.90;;;;;;5104042;27;20043;-80
2022/10/16 03:09:11;;;;;;;2.25;0.70;;;12.50;99.90;;;;;;5124458;27;20046;-80
2022/10/16 03:11:39;;;;;;;4.18;0.70;;;12.50;99.90;;;;;;5121668;27;20047;-81
2022/10/16 03:14:05;;;;;;;2.65;0.82;;;12.80;99.90;;;;;;5097075;27;20080;-83
2022/10/16 03:16:31;;;;;;;4.35;0.70;;;12.60;99.90;;;;;;5119118;27;20043;-84
2022/10/16 03:18:56;;;;;;;3.72;0.63;;;12.50;99.90;;;;;;5101496;27;20057;-83
2022/10/16 03:21:22;;;;;;;3.70;1.00;;;14.20;99.90;;;;;;5122048;27;20737;-84
2022/10/16 03:23:48;;;;;;;2.92;1.20;;;13.80;99.90;;;;;;5105590;27;20069;-87
2022/10/16 03:26:13;;;;;;;2.20;1.00;;;12.60;99.90;;;;;;5104617;27;20543;-83
2022/10/16 03:28:39;;;;;;;3.22;0.60;;;12.60;99.90;;;;;;5122946;27;20059;-86
2022/10/16 03:31:05;;;;;;;2.92;0.65;;;14.10;99.90;;;;;;5096962;28;20086;-80
2022/10/16 03:33:30;;;;;;;2.63;0.80;;;12.60;99.90;;;;;;5103127;27;20121;-87
2022/10/16 03:35:56;;;;;;;3.35;0.80;;;12.60;99.90;;;;;;5113786;28;20043;-80
2022/10/16 03:38:22;;;;;;;2.63;0.90;;;12.50;99.90;;;;;;5116761;27;20138;-80
2022/10/16 03:40:48;;;;;;;4.63;0.95;;;12.40;99.90;;;;;;5101440;28;20130;-78
2022/10/16 03:43:14;;;;;;;5.38;1.38;;;12.00;99.90;;;;;;5146483;27;20030;-82
2022/10/16 03:45:39;;;;;;;4.80;0.70;;;12.50;99.90;;;;;;5144559;27;20034;-77
2022/10/16 03:48:05;;;;;;;1.55;0.85;;;12.40;99.90;;;;;;5108043;28;20522;-79
2022/10/16 03:50:31;;;;;;;4.55;1.02;;;12.40;99.90;;;;;;5108256;27;20126;-80
2022/10/16 03:52:56;;;;;;;2.28;0.77;;;13.40;99.90;;;;;;5130347;27;20081;-77
2022/10/16 03:55:22;;;;;;;3.67;0.73;;;14.00;99.90;;;;;;5111170;27;20049;-77
2022/10/16 03:57:48;;;;;;;2.63;0.82;;;12.30;99.90;;;;;;5103016;28;20035;-77
2022/10/16 04:00:13;;;;;;;4.00;1.40;;;14.10;99.90;;;;;;5125863;27;20043;-78
2022/10/16 04:02:39;;;;;;;1.35;0.93;;;12.30;99.90;;;;;;5100991;27;20039;-78
2022/10/16 04:05:05;;;;;;;2.30;0.85;;;13.90;99.90;;;;;;5118071;27;20031;-81
2022/10/16 04:07:34;;;;;;;4.85;0.90;;;12.30;99.90;;;;;;5135684;27;20062;-80
2022/10/16 04:10:00;;;;;;;3.53;1.38;;;12.20;99.90;;;;;;5122517;28;20482;-79
2022/10/16 04:12:26;;;;;;;3.75;1.20;;;12.30;99.90;;;;;;5104607;27;20067;-78
2022/10/16 04:14:52;;;;;;;3.08;0.80;;;12.20;99.90;;;;;;5122126;27;20482;-82
2022/10/16 04:17:18;;;;;;;3.65;1.38;;;12.20;99.90;;;;;;5129697;27;20064;-78
2022/10/16 04:19:43;;;;;;;1.95;0.68;;;12.20;99.90;;;;;;5095905;27;20077;-85
2022/10/16 04:22:09;;;;;;;2.58;1.15;;;12.20;99.90;;;;;;5124405;27;20098;-77
2022/10/16 04:24:35;;;;;;;3.53;1.33;;;12.20;99.90;;;;;;5097552;27;20114;-78
2022/10/16 04:27:01;;;;;;;4.97;1.50;;;12.20;99.90;;;;;;5104407;27;20035;-78
2022/10/16 04:29:26;;;;;;;2.63;1.00;;;12.30;99.90;;;;;;5150055;27;20059;-81
2022/10/16 04:31:52;;;;;;;3.85;1.30;;;14.00;99.90;;;;;;5103350;27;20031;-79
2022/10/16 04:34:18;;;;;;;7.28;1.27;;;12.80;99.90;;;;;;5098242;27;20423;-78
2022/10/16 04:36:44;;;;;;;3.83;1.02;;;12.20;99.90;;;;;;5115360;27;20085;-80
2022/10/16 04:39:09;;;;;;;5.38;1.30;;;12.20;99.90;;;;;;5115851;27;20069;-78
2022/10/16 04:41:35;;;;;;;6.55;1.10;;;13.70;99.90;;;;;;5139984;27;20039;-79
2022/10/16 04:44:00;;;;;;;3.28;1.10;;;13.30;99.90;;;;;;5117206;27;20663;-81
2022/10/16 04:46:26;;;;;;;2.78;1.35;;;13.90;99.90;;;;;;5129203;27;20034;-77
2022/10/16 04:48:51;;;;;;;4.35;1.45;;;13.80;99.90;;;;;;5116452;27;20043;-80
2022/10/16 04:51:18;;;;;;;5.32;1.25;;;11.80;99.90;;;;;;5127444;27;20537;-87
2022/10/16 04:53:44;;;;;;;5.28;1.70;;;13.80;99.90;;;;;;5146769;27;20066;-78
2022/10/16 04:56:09;;;;;;;5.05;1.48;;;12.50;99.90;;;;;;5104701;27;20479;-78
2022/10/16 04:58:35;;;;;;;10.75;1.80;;;12.30;99.90;;;;;;5109277;27;20595;-78
2022/10/16 05:01:01;;;;;;;5.70;1.80;;;12.20;99.90;;;;;;5110463;27;20035;-79
2022/10/16 05:03:26;;;;;;;2.90;1.15;;;12.30;99.90;;;;;;5124969;27;20041;-80
2022/10/16 05:05:52;;;;;;;5.10;1.63;;;14.10;99.90;;;;;;5106987;27;20043;-81
2022/10/16 05:08:18;;;;;;;3.40;1.30;;;13.80;99.90;;;;;;5131375;27;20038;-81
2022/10/16 05:10:44;;;;;;;5.80;1.20;;;13.80;99.90;;;;;;5108560;27;20469;-79
2022/10/16 05:13:10;;;;;;;2.63;1.27;;;12.30;99.90;;;;;;5132519;27;20030;-84
2022/10/16 05:15:36;;;;;;;4.78;1.55;;;13.80;99.90;;;;;;5128767;27;20043;-79
2022/10/16 05:18:02;;;;;;;4.85;1.40;;;12.20;99.90;;;;;;5119090;27;20118;-82
2022/10/16 05:20:28;;;;;;;5.03;1.50;;;12.20;99.90;;;;;;5129612;27;20448;-81
2022/10/16 05:22:54;;;;;;;2.60;1.25;;;12.10;99.90;;;;;;5098361;27;20121;-84
2022/10/16 05:25:19;;;;;;;7.15;1.83;;;12.20;99.90;;;;;;5128039;27;20047;-86
2022/10/16 05:27:49;;;;;;;5.47;1.45;;;12.00;99.90;;;;;;5102055;27;20401;-82
2022/10/16 05:30:15;;;;;;;4.53;1.13;;;12.20;99.90;;;;;;5126692;27;20034;-82
2022/10/16 05:32:41;;;;;;;8.18;1.77;;;12.20;99.90;;;;;;5121767;27;20038;-81
2022/10/16 05:35:07;;;;;;;4.30;1.35;;;13.70;99.90;;;;;;5124390;27;20039;-79
2022/10/16 05:37:33;;;;;;;5.85;1.45;;;12.20;99.90;;;;;;5104981;27;20043;-82
2022/10/16 05:39:59;;;;;;;2.85;1.30;;;11.80;99.90;;;;;;5125103;27;20050;-80
2022/10/16 05:42:24;;;;;;;3.17;1.55;;;12.20;99.90;;;;;;5100291;27;20067;-83
2022/10/16 05:44:50;;;;;;;5.55;1.63;;;13.20;99.90;;;;;;5103675;27;20153;-78
2022/10/16 05:47:15;;;;;;;5.15;2.03;;;13.60;99.90;;;;;;5108232;27;20490;-78
2022/10/16 05:49:41;;;;;;;3.30;1.40;;;14.00;99.90;;;;;;5151819;27;20070;-78
2022/10/16 05:52:07;;;;;;;5.85;1.30;;;12.30;99.90;;;;;;5145078;27;20027;-78
2022/10/16 05:54:32;;;;;;;4.05;1.40;;;12.20;99.90;;;;;;5123544;27;20448;-78
2022/10/16 05:56:58;;;;;;;9.50;1.55;;;12.50;99.90;;;;;;5110693;27;20565;-77
2022/10/16 05:59:23;;;;;;;9.52;2.03;;;12.20;99.90;;;;;;5106234;27;20042;-78
2022/10/16 06:01:49;;;;;;;3.13;1.48;;;13.30;99.90;;;;;;5130190;27;20157;-78
2022/10/16 06:04:15;;;;;;;4.57;1.95;;;13.50;99.90;;;;;;5126348;27;20083;-77
2022/10/16 06:06:40;;;;;;;4.97;1.83;;;12.20;99.90;;;;;;5129456;27;20031;-77
2022/10/16 06:09:07;;;;;;;4.60;1.90;;;12.20;99.90;;;;;;5141803;27;20074;-77
2022/10/16 06:11:33;;;;;;;5.53;2.08;;;12.30;99.90;;;;;;5104928;27;20114;-78
2022/10/16 06:14:02;;;;;;;5.38;1.95;;;14.10;99.90;;;;;;5108419;27;20073;-78
2022/10/16 06:16:29;;;;;;;3.75;2.10;;;12.30;99.90;;;;;;5110494;27;20039;-78
2022/10/16 06:18:59;;;;;;;13.57;1.92;;;12.20;99.90;;;;;;5130587;27;20047;-77
2022/10/16 06:21:27;;;;;;;4.95;1.95;;;12.30;99.90;;;;;;5101214;27;20482;-78
2022/10/16 06:23:55;;;;;;;4.15;1.63;;;13.30;99.90;;;;;;5101330;27;20067;-77
2022/10/16 06:26:24;;;;;;;5.85;1.50;;;13.70;99.90;;;;;;5126887;27;20057;-79
2022/10/16 06:28:49;;;;;;;8.38;2.05;;;13.30;99.90;;;;;;5101971;27;20055;-80
2022/10/16 06:31:16;;;;;;;4.70;1.73;;;13.60;99.90;;;;;;5100991;27;20130;-79
2022/10/16 06:33:42;;;;;;;4.82;1.88;;;13.50;99.90;;;;;;5095476;28;20036;-77
2022/10/16 06:36:14;;;;;;;5.50;2.00;;;12.30;99.90;;;;;;5095818;28;20078;-78
2022/10/16 06:38:40;;;;;;;4.20;1.65;;;13.30;99.90;;;;;;5095097;27;20546;-77
2022/10/16 06:41:07;;;;;;;3.97;1.55;;;12.40;99.90;;;;;;5102289;27;20066;-77
2022/10/16 06:43:35;;;;;;;4.72;1.83;;;12.10;99.90;;;;;;5122989;27;20507;-77
2022/10/16 06:46:02;;;;;;;3.33;1.80;;;12.40;99.90;;;;;;5102502;28;20071;-77
2022/10/16 06:48:28;;;;;;;4.30;1.88;;;11.40;99.90;;;;;;5102159;27;20444;-77
2022/10/16 06:50:59;;;;;;;4.47;1.70;;;12.40;99.90;;;;;;5105046;28;20695;-78
2022/10/16 06:53:26;;;;;;;7.50;1.77;;;12.50;99.90;;;;;;5119355;27;20053;-83
2022/10/16 06:55:51;;;;;;;4.45;1.52;;;13.90;99.90;;;;;;5125016;27;20419;-78
2022/10/16 06:58:17;;;;;;;4.97;2.00;;;12.40;99.90;;;;;;5117497;27;20154;-80
2022/10/16 07:00:43;;;;;;;5.10;1.80;;;14.00;99.90;;;;;;5102689;27;20050;-79
2022/10/16 07:03:08;;;;;;;3.88;1.73;;;13.00;99.90;;;;;;5118190;27;20553;-78
2022/10/16 07:05:38;;;;;;;5.35;2.10;;;13.60;99.90;;;;;;5101966;27;20152;-79
2022/10/16 07:08:05;;;;;;;6.32;1.40;;;14.30;99.90;;;;;;5119417;27;20070;-79
2022/10/16 07:10:34;;;;;;;4.22;1.50;;;12.60;99.90;;;;;;5119496;27;20582;-83
2022/10/16 07:13:01;;;;;;;6.53;1.27;;;12.50;99.90;;;;;;5106884;27;20036;-79
2022/10/16 07:15:27;;;;;;;7.75;1.65;;;14.20;99.90;;;;;;5125152;27;20043;-80
2022/10/16 07:17:53;;;;;;;12.25;1.85;;;14.20;99.90;;;;;;5124641;27;20031;-82
2022/10/16 07:20:19;;;;;;;6.07;1.73;;;12.60;99.90;;;;;;5123875;27;20053;-84
2022/10/16 07:22:45;;;;;;;4.20;2.10;;;14.20;99.90;;;;;;5120786;27;20386;-84
2022/10/16 07:25:12;;;;;;;7.07;1.90;;;13.50;99.90;;;;;;5115309;27;20084;-85
2022/10/16 07:27:38;;;;;;;4.90;1.70;;;13.40;99.90;;;;;;5101869;28;20047;-79
2022/10/16 07:30:04;;;;;;;3.13;1.83;;;12.50;99.90;;;;;;5111611;27;20046;-81
2022/10/16 07:32:31;;;;;;;7.72;2.10;;;12.60;99.90;;;;;;5088586;28;20506;-79
2022/10/16 07:34:57;;;;;;;6.00;1.80;;;14.20;99.90;;;;;;5114946;28;20202;-82
2022/10/16 07:37:23;;;;;;;4.10;1.35;;;13.10;99.90;;;;;;5124635;28;20039;-80
2022/10/16 07:39:49;;;;;;;6.18;1.77;;;12.60;99.90;;;;;;5118244;28;20456;-82
2022/10/16 07:42:15;;;;;;;2.75;2.00;;;12.60;99.90;;;;;;5104580;28;20042;-82
2022/10/16 07:44:41;;;;;;;4.20;1.60;;;12.60;99.90;;;;;;5097245;28;20043;-81
2022/10/16 07:47:08;;;;;;;5.38;1.83;;;13.90;99.90;;;;;;5101569;28;20035;-87
2022/10/16 07:49:33;;;;;;;6.28;1.60;;;12.70;99.90;;;;;;5117256;28;20062;-78
2022/10/16 07:51:59;;;;;;;3.75;1.40;;;13.80;99.90;;;;;;5114514;28;20492;-76
2022/10/16 07:54:24;;;;;;;5.75;1.80;;;13.90;99.90;;;;;;5118762;28;20122;-81
2022/10/16 07:56:51;;;;;;;3.85;1.70;;;12.40;99.90;;;;;;5121952;28;20051;-84
2022/10/16 07:59:17;;;;;;;4.18;2.03;;;12.60;99.90;;;;;;5120878;28;20058;-78
2022/10/16 08:01:42;;;;;;;4.78;2.22;;;12.60;99.90;;;;;;5103391;28;20032;-82
2022/10/16 08:04:09;;;;;;;6.80;1.70;;;12.70;99.90;;;;;;5122952;27;20050;-79
2022/10/16 08:06:39;;;;;;;3.85;1.67;;;14.50;99.90;;;;;;5118206;27;20067;-83
2022/10/16 08:09:06;;;;;;;6.60;1.75;;;12.60;99.90;;;;;;5125392;27;20040;-77
2022/10/16 08:11:32;;;;;;;3.97;1.67;;;14.30;99.90;;;;;;5123275;27;20496;-78
2022/10/16 08:13:58;;;;;;;9.00;3.28;;;14.30;99.90;;;;;;5110854;27;20047;-79
2022/10/16 08:16:24;;;;;;;5.80;2.00;;;13.10;99.90;;;;;;5125543;27;20035;-77
2022/10/16 08:18:51;;;;;;;6.63;1.70;;;12.80;99.90;;;;;;5122220;27;20069;-77
2022/10/16 08:21:22;;;;;;;4.40;1.60;;;12.80;99.90;;;;;;5125260;27;20039;-81
2022/10/16 08:23:53;;;;;;;5.47;1.75;;;12.80;99.90;;;;;;5112663;27;20039;-79
2022/10/16 08:26:19;;;;;;;5.30;1.13;;;12.90;99.90;;;;;;5092742;28;20035;-78
2022/10/16 08:28:44;;;;;;;4.30;1.40;;;14.70;99.90;;;;;;5097682;27;20062;-81
2022/10/16 08:31:15;;;;;;;3.47;1.40;;;13.10;99.90;;;;;;5118370;27;20035;-82
2022/10/16 08:33:43;;;;;;;3.85;1.02;;;14.00;99.90;;;;;;5095981;28;20720;-81
2022/10/16 08:36:09;;;;;;;6.35;1.40;;;15.00;99.90;;;;;;5116581;27;20110;-80
2022/10/16 08:38:35;;;;;;;5.40;0.80;;;13.30;99.90;;;;;;5117006;27;20047;-80
2022/10/16 08:41:13;;;;;;;3.92;0.98;;;13.30;99.90;;;;;;5096128;28;20031;-80
2022/10/16 08:44:16;;;;;;;2.45;0.65;;;13.40;99.90;;;;;;5098114;27;20054;-82
2022/10/16 08:47:12;;;;;;;2.53;0.90;;;14.60;99.90;;;;;;5116897;27;20047;-82
2022/10/16 08:49:41;;;;;;;3.72;1.30;;;13.70;99.90;;;;;;5096952;28;20047;-82
2022/10/16 08:52:12;;;;;;;4.75;1.15;;;14.10;99.90;;;;;;5094046;27;20502;-78
2022/10/16 08:54:46;;;;;;;3.10;0.95;;;13.70;99.90;;;;;;5098898;27;20491;-79
2022/10/16 08:57:16;;;;;;;3.85;1.10;;;14.70;99.90;;;;;;5117123;27;20042;-84
2022/10/16 08:59:43;;;;;;;5.50;1.33;;;14.90;99.90;;;;;;5097836;27;20461;-78
2022/10/16 09:02:42;;;;;;;5.97;0.68;;;15.30;99.90;;;;;;5117440;27;20051;-79
2022/10/16 09:05:44;;;;;;;4.60;1.15;;;15.20;99.90;;;;;;5095722;27;20051;-79
2022/10/16 09:08:34;;;;;;;5.32;1.52;;;14.10;99.90;;;;;;5087697;28;20088;-85
2022/10/16 09:11:18;;;;;;;7.30;1.17;;;14.20;99.90;;;;;;5087563;28;20043;-80
2022/10/16 09:14:08;;;;;;;4.88;1.52;;;14.30;99.90;;;;;;5091078;28;20103;-84
2022/10/16 09:16:35;;;;;;;5.88;1.10;;;14.30;99.90;;;;;;5091709;28;20040;-80
2022/10/16 09:19:14;;;;;;;5.97;1.02;;;14.30;99.90;;;;;;5102320;28;20047;-81
2022/10/16 09:21:43;;;;;;;6.97;1.48;;;16.00;99.90;;;;;;5089629;28;20118;-82
2022/10/16 09:24:21;;;;;;;7.65;1.38;;;13.10;99.90;;;;;;5109513;28;20050;-86
2022/10/16 09:26:47;;;;;;;5.47;1.42;;;14.50;99.90;;;;;;5109848;27;20114;-80
2022/10/16 09:29:14;;;;;;;9.93;1.45;;;15.40;99.90;;;;;;5086535;28;20135;-86
2022/10/16 09:31:41;;;;;;;5.80;1.00;;;16.00;99.90;;;;;;4728360;28;9999653;-80
2022/10/16 09:34:11;;;;;;;12.48;2.15;;;15.60;99.90;;;;;;5099550;28;20082;-83
2022/10/16 09:36:44;;;;;;;8.98;1.25;;;14.60;99.90;;;;;;5103820;28;20059;-81
2022/10/16 09:39:11;;;;;;;8.82;1.95;;;14.60;99.90;;;;;;5072347;28;20099;-80
2022/10/16 09:41:40;;;;;;;7.95;1.40;;;14.90;99.90;;;;;;5077485;28;20458;-80
2022/10/16 09:44:19;;;;;;;10.35;1.85;;;15.90;99.90;;;;;;5103955;28;20044;-87
2022/10/16 09:46:52;;;;;;;8.68;1.48;;;14.70;99.90;;;;;;5090089;28;20044;-79
2022/10/16 09:49:27;;;;;;;9.02;2.05;;;14.90;99.90;;;;;;5092017;28;20048;-81
2022/10/16 09:52:11;;;;;;;8.23;1.60;;;16.40;99.90;;;;;;5089514;28;20046;-82
2022/10/16 09:54:36;;;;;;;9.00;2.08;;;14.80;99.90;;;;;;5104808;28;20052;-84
2022/10/16 09:57:07;;;;;;;11.65;1.40;;;14.90;99.90;;;;;;5071788;28;20043;-78
2022/10/16 09:59:33;;;;;;;9.77;1.55;;;14.80;99.90;;;;;;5095422;28;20040;-77
2022/10/16 10:02:10;;;;;;;12.95;2.00;;;14.80;99.90;;;;;;5103818;28;20469;-78
2022/10/16 10:04:49;;;;;;;11.23;2.38;;;15.80;99.90;;;;;;5104770;28;20040;-86
2022/10/16 10:07:25;;;;;;;11.40;1.98;;;14.90;99.90;;;;;;5098139;28;20144;-81
2022/10/16 10:09:50;;;;;;;15.60;2.17;;;16.30;99.90;;;;;;5087773;28;20067;-76
2022/10/16 10:12:25;;;;;;;11.18;2.28;;;16.40;99.90;;;;;;5100370;28;20082;-76
2022/10/16 10:14:53;;;;;;;7.88;1.73;;;14.90;99.90;;;;;;5082534;28;20043;-77
2022/10/16 10:17:27;;;;;;;13.40;2.40;;;15.00;99.90;;;;;;5105881;28;20050;-78
2022/10/16 10:20:00;;;;;;;;;;;16.50;99.90;;;;;;5075164;28;20052;-81
2022/10/16 10:22:56;;;;;;;14.02;2.17;;;15.10;99.90;;;;;;5086443;28;19975;-79
2022/10/16 10:25:30;;;;;;;15.68;2.00;;;15.20;99.90;;;;;;5079571;28;20043;-82
2022/10/16 10:28:15;;;;;;;11.07;1.55;;;15.20;99.90;;;;;;5093541;27;20493;-81
2022/10/16 10:30:41;;;;;;;;;;;15.20;99.90;;;;;;5111364;27;20398;-83
2022/10/16 10:33:24;;;;;;;12.75;2.20;;;15.20;99.90;;;;;;5115104;27;19919;-78
2022/10/16 10:36:22;;;;;;;9.67;1.73;;;15.30;99.90;;;;;;5101183;27;20089;-78
2022/10/16 10:38:58;;;;;;;9.88;2.25;;;15.40;99.90;;;;;;5122754;27;20266;-78
2022/10/16 10:41:34;;;;;;;12.75;2.03;;;15.50;99.90;;;;;;5112496;27;20112;-80
2022/10/16 10:44:06;;;;;;;12.27;2.55;;;15.60;99.90;;;;;;5139463;27;20050;-83
2022/10/16 10:46:41;;;;;;;9.77;1.65;;;15.50;99.90;;;;;;5123215;27;20035;-81
2022/10/16 10:49:30;;;;;;;12.07;1.80;;;15.50;99.90;;;;;;5105001;27;20177;-82
2022/10/16 10:52:10;;;;;;;9.40;1.55;;;15.70;99.90;;;;;;5116402;27;20073;-82
2022/10/16 10:54:41;;;;;;;13.40;2.65;;;15.80;99.90;;;;;;5125981;27;20039;-79
2022/10/16 10:57:28;;;;;;;14.38;2.10;;;15.70;99.90;;;;;;5123164;27;20066;-78
2022/10/16 11:00:17;;;;;;;12.82;1.75;;;15.80;99.90;;;;;;5104037;27;20039;-82
2022/10/16 11:03:04;;;;;;;14.05;2.65;;;15.90;99.90;;;;;;5114509;27;20734;-80
2022/10/16 11:05:56;;;;;;;14.40;2.15;;;15.90;99.90;;;;;;5123409;27;20035;-82
2022/10/16 11:08:56;;;;;;;13.50;2.45;;;15.90;99.90;;;;;;5112142;27;20048;-84
2022/10/16 11:11:49;;;;;;;14.88;2.13;;;15.90;99.90;;;;;;5116714;27;20043;-84
2022/10/16 11:14:25;;;;;;;11.50;1.70;;;15.90;99.90;;;;;;5115185;27;20047;-82
2022/10/16 11:17:00;;;;;;;16.83;3.03;;;15.90;99.90;;;;;;5108252;27;20039;-81
2022/10/16 11:19:44;;;;;;;11.13;2.00;;;15.90;99.90;;;;;;5122460;27;20035;-85
2022/10/16 11:22:13;;;;;;;;;;;16.00;99.90;;;;;;5118231;27;20035;-81
2022/10/16 11:25:02;;;;;;;10.85;2.28;;;16.00;99.90;;;;;;5125837;27;19930;-86
2022/10/16 11:27:47;;;;;;;8.32;1.50;;;16.10;99.90;;;;;;5098749;28;20113;-89
2022/10/16 11:30:37;;;;;;;;;;;16.10;99.90;;;;;;5108624;27;20130;-85
2022/10/16 11:33:15;;;;;;;12.77;1.88;;;16.20;99.90;;;;;;5113656;27;19923;-80
2022/10/16 11:36:04;;;;;;;10.75;1.63;;;16.30;99.90;;;;;;5099052;28;20039;-79
2022/10/16 11:38:43;;;;;;;11.95;1.73;;;16.40;99.90;;;;;;5116138;27;20055;-82
2022/10/16 11:41:20;;;;;;;9.10;2.10;;;16.50;99.90;;;;;;5131254;27;20129;-82
2022/10/16 11:44:24;;;;;;;13.18;1.55;;;16.60;99.90;;;;;;5134307;27;20031;-82
2022/10/16 11:47:20;;;;;;;8.48;2.22;;;16.50;99.90;;;;;;5118136;27;20058;-85
2022/10/16 11:49:49;;;;;;;17.55;2.60;;;16.60;99.90;;;;;;5109153;27;20035;-79
2022/10/16 11:52:30;;;;;;;13.57;2.05;;;16.60;99.90;;;;;;5107089;27;20050;-81
2022/10/16 11:55:08;;;;;;;15.27;2.80;;;17.70;99.90;;;;;;5109167;27;20122;-85
2022/10/16 11:57:40;;;;;;;9.73;1.92;;;16.70;99.90;;;;;;5131365;27;20046;-88
2022/10/16 12:00:22;;;;;;;12.25;1.77;;;17.20;99.90;;;;;;5131359;27;20043;-83
2022/10/16 12:02:58;;;;;;;13.35;2.08;;;16.80;99.90;;;;;;5101951;28;20131;-82
2022/10/16 12:05:54;;;;;;;19.23;2.45;;;17.60;99.90;;;;;;5124675;27;20517;-83
2022/10/16 12:08:20;;;;;;;12.77;2.33;;;16.80;99.90;;;;;;5129011;27;20380;-79
2022/10/16 12:10:47;;;;;;;13.48;2.28;;;16.70;99.90;;;;;;5132714;27;20046;-80
2022/10/16 12:13:40;;;;;;;9.98;2.15;;;17.70;99.90;;;;;;5129925;27;20414;-80
2022/10/16 12:16:12;;;;;;;10.05;2.00;;;16.60;99.90;;;;;;5129767;27;20042;-81
2022/10/16 12:19:10;;;;;;;11.30;2.13;;;16.60;99.90;;;;;;5130937;27;20100;-81
2022/10/16 12:21:36;;;;;;;13.70;2.28;;;16.50;99.90;;;;;;5113964;27;20067;-84
2022/10/16 12:24:06;;;;;;;13.15;3.92;;;16.40;99.90;;;;;;5125073;27;20039;-81
2022/10/16 12:26:38;;;;;;;11.10;2.28;;;16.40;99.90;;;;;;5120830;27;20168;-79
2022/10/16 12:29:36;;;;;;;18.83;2.20;;;16.30;99.90;;;;;;5109902;27;20130;-78
2022/10/16 12:32:05;;;;;;;16.33;2.80;;;16.30;99.90;;;;;;5114408;27;20552;-80
2022/10/16 12:34:47;;;;;;;13.00;2.63;;;16.10;99.90;;;;;;5102641;28;20075;-80
2022/10/16 12:37:23;;;;;;;13.57;2.38;;;15.00;99.90;;;;;;5098760;28;20130;-82
2022/10/16 12:39:49;;;;;;;17.27;2.55;;;15.90;99.90;;;;;;5116302;27;20066;-81
2022/10/16 12:42:42;;;;;;;8.93;1.98;;;16.20;99.90;;;;;;5116865;27;20112;-82
2022/10/16 12:45:32;;;;;;;8.00;1.90;;;15.80;99.90;;;;;;5115994;27;20535;-80
2022/10/16 12:48:02;;;;;;;12.95;2.38;;;15.60;99.90;;;;;;5114540;27;20036;-82
2022/10/16 12:50:39;;;;;;;14.43;2.03;;;15.50;99.90;;;;;;5105458;28;20058;-84
2022/10/16 12:53:21;;;;;;;13.80;1.85;;;16.70;99.90;;;;;;5113862;28;20035;-84
2022/10/16 12:56:07;;;;;;;6.25;1.30;;;15.40;99.90;;;;;;5123157;27;20527;-81
2022/10/16 12:58:48;;;;;;;16.17;2.70;;;15.50;99.90;;;;;;5089518;27;20043;-81
2022/10/16 13:01:29;;;;;;;10.77;2.55;;;15.60;99.90;;;;;;5119622;27;20122;-81
2022/10/16 13:04:10;;;;;;;14.10;2.05;;;15.60;99.90;;;;;;5115041;27;20042;-83
2022/10/16 13:06:43;;;;;;;14.07;2.47;;;15.50;99.90;;;;;;5117104;27;20066;-80